Terminal Aerodrome Forecast
Issued by NWS Austin/San Antonio, TX

Home | Current Version | Previous Version | Text Only | Print | Product List | Glossary On
Versions: 1 2 3 4 5 6 7 8 9 10 11 12 13 14 15 16 17 18 19 20 21 22 23 24 25 26 27 28 29 30 31 32 33 34
810
FTUS44 KEWX 161728
TAFSAT
TAF
KSAT 161728Z 1618/1724 35007KT P6SM VCSH OVC020
     FM162000 35006KT P6SM OVC035
     FM170200 02006KT P6SM OVC019
     FM171000 03011G17KT 6SM BR VCSH OVC010=

USA.gov is the U.S. government's official web portal to all federal, state and local government web resources and services.